createdAt,value
2023-04-22T00:01:49.205Z,6.50
2023-04-22T00:04:16.821Z,6.40
2023-04-22T00:06:45.774Z,6.40
2023-04-22T00:09:13.163Z,6.30
2023-04-22T00:11:41.100Z,6.20
2023-04-22T00:14:08.183Z,6.20
2023-04-22T00:16:35.464Z,6.10
2023-04-22T00:19:02.605Z,6.10
2023-04-22T00:21:29.752Z,6.00
2023-04-22T00:23:56.901Z,6.00
2023-04-22T00:26:24.478Z,6.00
2023-04-22T00:28:51.670Z,6.00
2023-04-22T00:31:18.870Z,5.90
2023-04-22T00:33:46.128Z,5.90
2023-04-22T00:36:13.262Z,5.80
2023-04-22T00:38:41.392Z,5.80
2023-04-22T00:41:08.884Z,5.80
2023-04-22T00:43:36.003Z,5.70
2023-04-22T00:46:03.701Z,5.70
2023-04-22T00:48:31.131Z,5.60
2023-04-22T00:50:58.230Z,5.60
2023-04-22T00:53:25.389Z,5.50
2023-04-22T00:55:52.558Z,5.50
2023-04-22T00:58:21.401Z,5.40
2023-04-22T01:00:48.641Z,5.40
2023-04-22T01:03:16.471Z,5.40
2023-04-22T01:05:45.289Z,5.40
2023-04-22T01:08:12.977Z,5.30
2023-04-22T01:10:42.036Z,5.30
2023-04-22T01:13:09.964Z,5.30
2023-04-22T01:15:37.878Z,5.30
2023-04-22T01:18:05.650Z,5.30
2023-04-22T01:20:33.264Z,5.20
2023-04-22T01:23:04.592Z,5.20
2023-04-22T01:25:31.854Z,5.10
2023-04-22T01:27:59.111Z,5.10
2023-04-22T01:30:26.900Z,5.10
2023-04-22T01:32:54.189Z,5.10
2023-04-22T01:35:21.367Z,5.10
2023-04-22T01:37:48.559Z,5.10
2023-04-22T01:40:20.154Z,5.10
2023-04-22T01:42:47.306Z,5.10
2023-04-22T01:45:15.487Z,5.00
2023-04-22T01:47:42.582Z,5.00
2023-04-22T01:50:10.409Z,5.00
2023-04-22T01:52:37.482Z,5.00
2023-04-22T01:55:05.005Z,5.00
2023-04-22T01:57:32.156Z,4.90
2023-04-22T01:59:59.330Z,4.90
2023-04-22T02:02:26.850Z,4.80
2023-04-22T02:04:54.062Z,4.80
2023-04-22T02:07:21.162Z,4.80
2023-04-22T02:09:50.283Z,4.80
2023-04-22T02:12:17.929Z,4.80
2023-04-22T02:14:45.569Z,4.80
2023-04-22T02:17:12.635Z,4.80
2023-04-22T02:19:39.998Z,4.70
2023-04-22T02:22:07.227Z,4.70
2023-04-22T02:24:34.435Z,4.60
2023-04-22T02:27:01.735Z,4.60
2023-04-22T02:29:29.054Z,4.60
2023-04-22T02:31:56.303Z,4.60
2023-04-22T02:34:23.469Z,4.60
2023-04-22T02:36:50.784Z,4.50
2023-04-22T02:39:17.888Z,4.50
2023-04-22T02:41:45.069Z,4.40
2023-04-22T02:44:12.191Z,4.50
2023-04-22T02:46:39.454Z,4.50
2023-04-22T02:49:06.661Z,4.50
2023-04-22T02:51:33.820Z,4.40
2023-04-22T02:54:00.897Z,4.40
2023-04-22T02:56:28.043Z,4.30
2023-04-22T02:58:55.160Z,4.40
2023-04-22T03:01:22.359Z,4.30
2023-04-22T03:03:50.688Z,4.30
2023-04-22T03:06:18.644Z,4.20
2023-04-22T03:08:45.853Z,4.10
2023-04-22T03:11:14.232Z,4.10
2023-04-22T03:13:41.360Z,4.10
2023-04-22T03:16:08.514Z,4.10
2023-04-22T03:18:35.936Z,4.00
2023-04-22T03:21:03.082Z,4.00
2023-04-22T03:23:30.328Z,3.90
2023-04-22T03:25:57.462Z,3.90
2023-04-22T03:28:24.604Z,3.90
2023-04-22T03:30:52.338Z,3.90
2023-04-22T03:33:19.658Z,3.90
2023-04-22T03:35:50.084Z,3.90
2023-04-22T03:38:17.228Z,3.90
2023-04-22T03:40:44.322Z,3.90
2023-04-22T03:43:11.503Z,4.00
2023-04-22T03:45:38.752Z,4.00
2023-04-22T03:48:06.227Z,4.00
2023-04-22T03:50:34.217Z,3.90
2023-04-22T03:53:01.376Z,3.90
2023-04-22T03:55:28.494Z,4.00
2023-04-22T03:57:55.631Z,4.00
2023-04-22T04:00:22.877Z,4.00
2023-04-22T04:02:50.099Z,4.00
2023-04-22T04:05:17.829Z,4.00
2023-04-22T04:07:45.118Z,4.10
2023-04-22T04:10:12.295Z,4.10
2023-04-22T04:12:39.374Z,4.10
2023-04-22T04:15:07.267Z,4.20
2023-04-22T04:17:34.539Z,4.30
2023-04-22T04:20:01.882Z,4.30
2023-04-22T04:22:29.468Z,4.40
2023-04-22T04:24:56.566Z,4.40
2023-04-22T04:27:24.528Z,4.50
2023-04-22T04:29:52.997Z,4.50
2023-04-22T04:32:20.094Z,4.50
2023-04-22T04:34:47.419Z,4.60
2023-04-22T04:37:14.648Z,4.60
2023-04-22T04:39:42.568Z,4.60
2023-04-22T04:42:10.217Z,4.70
2023-04-22T04:44:37.873Z,4.80
2023-04-22T04:47:05.928Z,4.90
2023-04-22T04:49:33.092Z,5.00
2023-04-22T04:52:00.214Z,5.10
2023-04-22T04:54:27.433Z,5.20
2023-04-22T04:56:54.557Z,5.30
2023-04-22T04:59:21.653Z,5.40
2023-04-22T05:01:48.848Z,5.60
2023-04-22T05:04:16.382Z,5.70
2023-04-22T05:06:43.791Z,5.80
2023-04-22T05:09:11.009Z,6.00
2023-04-22T05:11:38.220Z,6.60
2023-04-22T05:14:06.043Z,7.60
2023-04-22T05:16:33.440Z,9.10
2023-04-22T05:19:00.554Z,11.50
2023-04-22T05:21:27.824Z,13.80
2023-04-22T05:23:54.908Z,15.60
2023-04-22T05:26:22.077Z,16.90
2023-04-22T05:28:49.181Z,17.60
2023-04-22T05:31:16.337Z,18.30
2023-04-22T05:33:43.508Z,18.90
2023-04-22T05:36:10.889Z,19.30
2023-04-22T05:38:37.976Z,19.00
2023-04-22T05:41:05.164Z,18.70
2023-04-22T05:43:32.242Z,18.80
2023-04-22T05:45:59.503Z,19.60
2023-04-22T05:48:26.661Z,19.70
2023-04-22T05:50:54.750Z,20.00
2023-04-22T05:53:21.867Z,19.70
2023-04-22T05:55:48.978Z,19.50
2023-04-22T05:58:16.061Z,19.40
2023-04-22T06:00:43.192Z,17.30
2023-04-22T06:03:10.582Z,15.50
2023-04-22T06:05:37.898Z,13.90
2023-04-22T06:08:05.122Z,13.00
2023-04-22T06:10:32.222Z,12.30
2023-04-22T06:12:59.512Z,12.00
2023-04-22T06:15:26.887Z,11.60
2023-04-22T06:17:54.223Z,11.30
2023-04-22T06:20:21.568Z,11.40
2023-04-22T06:22:48.769Z,11.40
2023-04-22T06:25:15.900Z,11.60
2023-04-22T06:27:43.094Z,11.70
2023-04-22T06:30:11.752Z,11.80
2023-04-22T06:32:38.990Z,12.00
2023-04-22T06:35:06.937Z,12.20
2023-04-22T06:37:34.155Z,12.50
2023-04-22T06:40:01.477Z,12.40
2023-04-22T06:42:28.559Z,12.50
2023-04-22T06:44:55.707Z,12.70
2023-04-22T06:47:23.465Z,12.50
2023-04-22T06:49:53.403Z,12.60
2023-04-22T06:52:23.968Z,12.90
2023-04-22T06:54:51.354Z,13.10
2023-04-22T06:57:18.520Z,13.40
2023-04-22T06:59:46.961Z,13.60
2023-04-22T07:02:14.639Z,13.40
2023-04-22T07:04:41.955Z,13.50
2023-04-22T07:07:09.262Z,13.30
2023-04-22T07:09:36.537Z,13.40
2023-04-22T07:12:03.769Z,13.60
2023-04-22T07:14:32.001Z,13.70
2023-04-22T07:16:59.441Z,13.60
2023-04-22T07:19:27.004Z,13.50
2023-04-22T07:21:54.584Z,13.40
2023-04-22T07:24:21.751Z,13.60
2023-04-22T07:26:48.855Z,13.80
2023-04-22T07:29:16.071Z,13.60
2023-04-22T07:31:43.238Z,13.80
2023-04-22T07:34:11.251Z,13.70
2023-04-22T07:36:38.636Z,13.80
2023-04-22T07:39:05.931Z,13.90
2023-04-22T07:41:33.045Z,13.70
2023-04-22T07:44:00.677Z,14.00
2023-04-22T07:46:27.967Z,14.10
2023-04-22T07:48:55.124Z,14.40
2023-04-22T07:51:22.261Z,14.30
2023-04-22T07:53:49.388Z,14.30
2023-04-22T07:56:16.497Z,14.50
2023-04-22T07:58:43.615Z,14.70
2023-04-22T08:01:10.923Z,14.70
2023-04-22T08:03:38.218Z,15.00
2023-04-22T08:06:05.733Z,15.30
2023-04-22T08:08:32.932Z,15.50
2023-04-22T08:11:00.025Z,15.80
2023-04-22T08:13:27.364Z,16.20
2023-04-22T08:15:54.475Z,16.00
2023-04-22T08:18:21.717Z,16.30
2023-04-22T08:20:50.608Z,16.30
2023-04-22T08:23:17.863Z,16.40
2023-04-22T08:25:45.028Z,16.70
2023-04-22T08:28:12.150Z,16.70
2023-04-22T08:30:39.436Z,16.60
2023-04-22T08:33:06.878Z,16.50
2023-04-22T08:35:37.783Z,16.50
2023-04-22T08:38:04.956Z,16.40
2023-04-22T08:40:32.129Z,16.50
2023-04-22T08:42:59.297Z,16.50
2023-04-22T08:45:26.535Z,16.70
2023-04-22T08:47:55.410Z,16.80
2023-04-22T08:50:22.754Z,16.80
2023-04-22T08:52:49.991Z,16.80
2023-04-22T08:55:17.287Z,16.80
2023-04-22T08:57:45.943Z,16.40
2023-04-22T09:00:13.566Z,16.60
2023-04-22T09:02:47.405Z,16.90
2023-04-22T09:05:15.305Z,17.10
2023-04-22T09:07:42.624Z,17.40
2023-04-22T09:10:12.044Z,17.30
2023-04-22T09:12:41.437Z,17.40
2023-04-22T09:15:10.083Z,17.50
2023-04-22T09:17:38.734Z,17.30
2023-04-22T09:20:09.097Z,17.60
2023-04-22T09:22:54.379Z,17.60
2023-04-22T09:25:23.888Z,17.90
2023-04-22T09:27:55.640Z,18.20
2023-04-22T09:30:31.659Z,18.00
2023-04-22T09:33:00.746Z,17.80
2023-04-22T09:35:31.253Z,17.90
2023-04-22T09:38:00.464Z,18.00
2023-04-22T09:40:28.710Z,18.10
2023-04-22T09:42:58.914Z,18.30
2023-04-22T09:45:41.740Z,18.10
2023-04-22T09:48:19.706Z,18.40
2023-04-22T09:50:49.196Z,18.80
2023-04-22T09:53:18.873Z,19.00
2023-04-22T09:55:52.099Z,19.10
2023-04-22T09:58:21.193Z,19.00
2023-04-22T10:00:57.132Z,19.00
2023-04-22T10:03:24.583Z,19.10
2023-04-22T10:05:52.530Z,19.20
2023-04-22T10:08:19.708Z,19.40
2023-04-22T10:10:47.284Z,19.40
2023-04-22T10:13:14.563Z,19.50
2023-04-22T10:15:48.905Z,19.60
2023-04-22T10:18:22.996Z,19.60
2023-04-22T10:20:51.766Z,19.60
2023-04-22T10:23:22.778Z,19.60
2023-04-22T10:25:53.826Z,19.50
2023-04-22T10:28:23.325Z,19.60
2023-04-22T10:30:51.315Z,19.80
2023-04-22T10:33:21.826Z,19.90
2023-04-22T10:36:11.781Z,19.60
2023-04-22T10:38:59.934Z,19.50
2023-04-22T10:41:31.074Z,19.60
2023-04-22T10:44:05.902Z,19.70
2023-04-22T10:46:40.363Z,19.60
2023-04-22T10:49:09.298Z,19.70
2023-04-22T10:51:45.224Z,19.80
2023-04-22T10:54:32.616Z,19.90
2023-04-22T10:57:14.556Z,20.10
2023-04-22T10:59:42.893Z,20.00
2023-04-22T11:02:12.158Z,20.10
2023-04-22T11:04:40.001Z,20.20
2023-04-22T11:07:29.897Z,20.40
2023-04-22T11:10:16.203Z,20.40
2023-04-22T11:12:45.302Z,20.50
2023-04-22T11:15:18.453Z,20.60
2023-04-22T11:17:53.686Z,20.90
2023-04-22T11:20:21.762Z,20.80
2023-04-22T11:22:54.620Z,20.60
2023-04-22T11:25:23.595Z,20.50
2023-04-22T11:27:50.928Z,20.60
2023-04-22T11:30:20.383Z,20.80
2023-04-22T11:32:53.285Z,20.80
2023-04-22T11:35:22.906Z,20.60
2023-04-22T11:37:52.861Z,20.70
2023-04-22T11:40:30.557Z,21.00
2023-04-22T11:43:01.421Z,21.10
2023-04-22T11:45:30.399Z,21.00
2023-04-22T11:47:58.262Z,20.60
2023-04-22T11:50:34.202Z,20.60
2023-04-22T11:53:21.494Z,20.70
2023-04-22T11:55:51.557Z,20.80
2023-04-22T11:58:29.402Z,21.10
2023-04-22T12:00:59.262Z,21.20
2023-04-22T12:03:29.134Z,21.60
2023-04-22T12:05:59.542Z,21.90
2023-04-22T12:08:42.725Z,22.10
2023-04-22T12:11:11.504Z,22.20
2023-04-22T12:13:38.648Z,22.20
2023-04-22T12:16:12.637Z,21.90
2023-04-22T12:18:50.082Z,21.70
2023-04-22T12:21:28.699Z,21.70
2023-04-22T12:24:05.130Z,21.80
2023-04-22T12:26:32.378Z,21.80
2023-04-22T12:29:00.916Z,21.90
2023-04-22T12:31:28.421Z,22.10
2023-04-22T12:33:56.585Z,22.20
2023-04-22T12:36:23.951Z,22.20
2023-04-22T12:38:51.613Z,21.90
2023-04-22T12:41:18.854Z,21.90
2023-04-22T12:43:46.727Z,22.00
2023-04-22T12:46:13.929Z,22.10
2023-04-22T12:48:42.959Z,22.20
2023-04-22T12:51:10.148Z,22.30
2023-04-22T12:53:37.307Z,22.20
2023-04-22T12:56:04.513Z,22.20
2023-04-22T12:58:31.703Z,22.30
2023-04-22T13:00:58.822Z,22.10
2023-04-22T13:03:26.322Z,22.00
2023-04-22T13:05:53.915Z,22.00
2023-04-22T13:08:21.434Z,22.00
2023-04-22T13:10:49.423Z,21.90
2023-04-22T13:13:18.833Z,21.90
2023-04-22T13:15:53.882Z,21.90
2023-04-22T13:18:24.882Z,22.10
2023-04-22T13:20:52.003Z,22.10
2023-04-22T13:23:21.925Z,22.10
2023-04-22T13:25:50.576Z,22.10
2023-04-22T13:28:17.822Z,22.10
2023-04-22T13:30:45.264Z,21.90
2023-04-22T13:33:12.448Z,22.10
2023-04-22T13:35:39.800Z,21.90
2023-04-22T13:38:07.352Z,21.70
2023-04-22T13:40:34.722Z,21.50
2023-04-22T13:43:02.006Z,21.40
2023-04-22T13:45:29.228Z,21.60
2023-04-22T13:47:56.499Z,21.90
2023-04-22T13:50:24.260Z,22.00
2023-04-22T13:52:51.479Z,21.70
2023-04-22T13:55:18.662Z,21.80
2023-04-22T13:57:45.858Z,21.80
2023-04-22T14:00:13.961Z,21.60
2023-04-22T14:02:41.360Z,21.80
2023-04-22T14:05:10.040Z,21.70
2023-04-22T14:07:38.002Z,21.80
2023-04-22T14:10:08.133Z,21.90
2023-04-22T14:12:35.300Z,22.10
2023-04-22T14:15:02.491Z,21.80
2023-04-22T14:17:29.735Z,21.80
2023-04-22T14:19:57.023Z,22.00
2023-04-22T14:22:24.180Z,22.00
2023-04-22T14:24:51.250Z,22.10
2023-04-22T14:27:18.389Z,22.10
2023-04-22T14:29:46.534Z,22.20
2023-04-22T14:32:13.704Z,22.10
2023-04-22T14:34:40.848Z,22.20
2023-04-22T14:37:08.067Z,22.20
2023-04-22T14:39:35.140Z,22.00
2023-04-22T14:42:02.909Z,21.90
2023-04-22T14:44:30.026Z,21.90
2023-04-22T14:46:57.294Z,22.10
2023-04-22T14:49:24.471Z,22.20
2023-04-22T14:51:52.224Z,22.30
2023-04-22T14:54:19.311Z,22.00
2023-04-22T14:56:46.590Z,21.90
2023-04-22T14:59:13.706Z,21.80
2023-04-22T15:01:43.262Z,21.80
2023-04-22T15:04:13.816Z,21.80
2023-04-22T15:06:41.501Z,21.70
2023-04-22T15:09:08.764Z,21.60
2023-04-22T15:11:35.951Z,21.70
2023-04-22T15:14:03.342Z,21.50
2023-04-22T15:16:30.690Z,21.80
2023-04-22T15:18:58.134Z,21.90
2023-04-22T15:21:25.354Z,22.00
2023-04-22T15:23:52.488Z,22.10
2023-04-22T15:26:19.696Z,22.10
2023-04-22T15:28:46.963Z,22.00
2023-04-22T15:31:14.068Z,21.90
2023-04-22T15:33:41.798Z,21.80
2023-04-22T15:36:09.923Z,21.80
2023-04-22T15:38:38.821Z,21.80
2023-04-22T15:41:06.134Z,21.70
2023-04-22T15:43:34.184Z,21.70
2023-04-22T15:46:01.671Z,21.80
2023-04-22T15:48:28.780Z,22.00
2023-04-22T15:50:55.994Z,22.00
2023-04-22T15:53:23.214Z,21.90
2023-04-22T15:55:51.749Z,21.80
2023-04-22T15:58:19.031Z,21.70
2023-04-22T16:00:46.285Z,21.80
2023-04-22T16:03:13.557Z,21.80
2023-04-22T16:05:40.898Z,21.60
2023-04-22T16:08:08.065Z,21.50
2023-04-22T16:10:35.254Z,21.50
2023-04-22T16:13:02.404Z,21.30
2023-04-22T16:15:29.566Z,21.20
2023-04-22T16:17:57.138Z,21.10
2023-04-22T16:20:24.699Z,20.90
2023-04-22T16:22:51.835Z,20.80
2023-04-22T16:25:20.253Z,20.80
2023-04-22T16:27:47.472Z,20.70
2023-04-22T16:30:16.107Z,20.60
2023-04-22T16:32:43.510Z,20.50
2023-04-22T16:35:11.704Z,20.50
2023-04-22T16:37:38.949Z,20.40
2023-04-22T16:40:07.096Z,20.40
2023-04-22T16:42:34.370Z,20.40
2023-04-22T16:45:02.200Z,20.70
2023-04-22T16:47:29.511Z,21.20
2023-04-22T16:49:56.639Z,21.50
2023-04-22T16:52:23.814Z,21.60
2023-04-22T16:54:51.848Z,21.40
2023-04-22T16:57:18.966Z,21.20
2023-04-22T16:59:46.152Z,21.00
2023-04-22T17:02:13.456Z,20.90
2023-04-22T17:04:40.683Z,20.80
2023-04-22T17:07:07.874Z,20.70
2023-04-22T17:09:35.012Z,20.50
2023-04-22T17:12:02.142Z,20.30
2023-04-22T17:14:29.415Z,20.10
2023-04-22T17:16:56.572Z,19.90
2023-04-22T17:19:24.814Z,19.70
2023-04-22T17:21:51.923Z,19.50
2023-04-22T17:24:21.164Z,19.40
2023-04-22T17:26:49.409Z,19.20
2023-04-22T17:29:16.564Z,19.10
2023-04-22T17:31:43.746Z,19.00
2023-04-22T17:34:11.052Z,18.80
2023-04-22T17:36:38.149Z,18.70
2023-04-22T17:39:05.430Z,18.60
2023-04-22T17:41:32.495Z,18.40
2023-04-22T17:43:59.646Z,18.10
2023-04-22T17:46:26.771Z,18.00
2023-04-22T17:48:53.963Z,18.00
2023-04-22T17:51:21.099Z,17.90
2023-04-22T17:53:48.207Z,17.70
2023-04-22T17:56:15.837Z,17.60
2023-04-22T17:58:42.990Z,17.50
2023-04-22T18:01:10.141Z,17.40
2023-04-22T18:03:37.548Z,17.30
2023-04-22T18:06:05.155Z,17.10
2023-04-22T18:08:32.308Z,17.00
2023-04-22T18:10:59.661Z,16.80
2023-04-22T18:13:27.022Z,16.80
2023-04-22T18:15:54.206Z,16.70
2023-04-22T18:18:21.456Z,16.60
2023-04-22T18:20:49.958Z,16.70
2023-04-22T18:23:17.226Z,16.60
2023-04-22T18:25:44.473Z,16.60
2023-04-22T18:28:11.568Z,16.50
2023-04-22T18:30:38.660Z,16.50
2023-04-22T18:33:05.976Z,16.30
2023-04-22T18:35:35.624Z,16.20
2023-04-22T18:38:03.308Z,16.10
2023-04-22T18:40:30.452Z,15.90
2023-04-22T18:42:58.269Z,15.70
2023-04-22T18:45:25.453Z,15.40
2023-04-22T18:47:53.088Z,15.20
2023-04-22T18:50:21.759Z,15.10
2023-04-22T18:52:48.963Z,15.00
2023-04-22T18:55:16.237Z,15.10
2023-04-22T18:57:43.828Z,15.20
2023-04-22T19:00:13.312Z,15.10
2023-04-22T19:02:42.263Z,15.00
2023-04-22T19:05:10.315Z,14.70
2023-04-22T19:07:38.587Z,14.70
2023-04-22T19:10:07.162Z,14.60
2023-04-22T19:12:34.950Z,14.60
2023-04-22T19:15:02.491Z,14.50
2023-04-22T19:17:29.997Z,14.40
2023-04-22T19:19:57.556Z,14.30
2023-04-22T19:22:24.852Z,14.10
2023-04-22T19:24:52.407Z,13.90
2023-04-22T19:27:19.951Z,13.70
2023-04-22T19:29:51.747Z,13.50
2023-04-22T19:32:19.791Z,13.40
2023-04-22T19:34:48.357Z,13.20
2023-04-22T19:37:16.832Z,13.10
2023-04-22T19:39:44.309Z,13.00
2023-04-22T19:42:12.418Z,12.90
2023-04-22T19:44:43.160Z,12.90
2023-04-22T19:47:11.109Z,13.00
2023-04-22T19:49:41.547Z,13.00
2023-04-22T19:52:15.403Z,12.90
2023-04-22T19:54:47.761Z,12.70
2023-04-22T19:57:15.922Z,12.70
2023-04-22T19:59:43.989Z,12.70
2023-04-22T20:02:12.717Z,12.70
2023-04-22T20:04:40.263Z,12.80
2023-04-22T20:07:07.754Z,12.80
2023-04-22T20:09:36.664Z,12.80
2023-04-22T20:12:05.613Z,12.90
2023-04-22T20:14:33.910Z,12.90
2023-04-22T20:17:01.310Z,12.80
2023-04-22T20:19:30.632Z,12.60
2023-04-22T20:22:00.290Z,12.40
2023-04-22T20:24:29.215Z,12.20
2023-04-22T20:26:56.555Z,12.10
2023-04-22T20:29:24.628Z,12.00
2023-04-22T20:31:52.135Z,11.90
2023-04-22T20:34:19.662Z,11.90
2023-04-22T20:36:46.969Z,11.80
2023-04-22T20:39:14.774Z,11.80
2023-04-22T20:41:42.401Z,11.80
2023-04-22T20:44:09.647Z,11.90
2023-04-22T20:46:37.719Z,11.90
2023-04-22T20:49:04.961Z,11.90
2023-04-22T20:51:32.255Z,11.90
2023-04-22T20:53:59.390Z,11.90
2023-04-22T20:56:27.830Z,11.80
2023-04-22T20:58:54.990Z,11.90
2023-04-22T21:01:22.241Z,11.80
2023-04-22T21:03:54.828Z,11.80
2023-04-22T21:06:22.501Z,11.70
2023-04-22T21:08:50.189Z,11.70
2023-04-22T21:11:18.700Z,11.60
2023-04-22T21:13:46.596Z,11.60
2023-04-22T21:16:16.523Z,11.60
2023-04-22T21:18:45.115Z,11.60
2023-04-22T21:21:14.431Z,11.60
2023-04-22T21:23:42.710Z,11.60
2023-04-22T21:26:10.769Z,11.60
2023-04-22T21:28:39.368Z,11.60
2023-04-22T21:31:07.071Z,11.60
2023-04-22T21:33:34.307Z,11.60
2023-04-22T21:36:01.551Z,11.60
2023-04-22T21:38:29.380Z,11.60
2023-04-22T21:40:56.586Z,11.50
2023-04-22T21:43:23.660Z,11.40
2023-04-22T21:45:50.916Z,11.30
2023-04-22T21:48:17.977Z,11.30
2023-04-22T21:50:45.101Z,11.20
2023-04-22T21:53:13.737Z,11.20
2023-04-22T21:55:41.211Z,11.10
2023-04-22T21:58:08.663Z,11.10
2023-04-22T22:00:36.273Z,11.00
2023-04-22T22:03:03.729Z,11.00
2023-04-22T22:05:31.983Z,11.00
2023-04-22T22:07:59.199Z,10.90
2023-04-22T22:10:26.554Z,10.80
2023-04-22T22:12:53.749Z,10.80
2023-04-22T22:15:21.102Z,10.70
2023-04-22T22:17:48.286Z,10.70
2023-04-22T22:20:21.218Z,10.60
2023-04-22T22:22:48.800Z,10.50
2023-04-22T22:25:17.069Z,10.60
2023-04-22T22:27:47.363Z,10.60
2023-04-22T22:30:15.418Z,10.60
2023-04-22T22:32:42.854Z,10.50
2023-04-22T22:35:10.873Z,10.50
2023-04-22T22:37:38.272Z,10.40
2023-04-22T22:40:06.353Z,10.40
2023-04-22T22:42:33.498Z,10.40
2023-04-22T22:45:00.597Z,10.40
2023-04-22T22:47:27.822Z,10.40
2023-04-22T22:49:54.996Z,10.30
2023-04-22T22:52:22.831Z,10.30
2023-04-22T22:54:50.566Z,10.30
2023-04-22T22:57:17.766Z,10.20
2023-04-22T22:59:44.956Z,10.10
2023-04-22T23:02:14.452Z,10.10
2023-04-22T23:04:41.927Z,10.00
2023-04-22T23:07:09.379Z,10.10
2023-04-22T23:09:36.528Z,10.10
2023-04-22T23:12:03.938Z,10.00
2023-04-22T23:14:33.047Z,10.00
2023-04-22T23:17:00.615Z,9.90
2023-04-22T23:19:28.813Z,9.80
2023-04-22T23:21:59.262Z,9.70
2023-04-22T23:24:26.829Z,9.70
2023-04-22T23:26:54.249Z,9.70
2023-04-22T23:29:21.893Z,9.70
2023-04-22T23:31:50.687Z,9.60
2023-04-22T23:34:21.549Z,9.60
2023-04-22T23:36:49.102Z,9.60
2023-04-22T23:39:16.860Z,9.50
2023-04-22T23:41:43.997Z,9.50
2023-04-22T23:44:11.989Z,9.50
2023-04-22T23:46:39.506Z,9.50
2023-04-22T23:49:07.551Z,9.50
2023-04-22T23:51:35.853Z,9.60
2023-04-22T23:54:03.028Z,9.60
2023-04-22T23:56:31.700Z,9.60
2023-04-22T23:58:59.142Z,9.50
